Corning, New York
Current Conditions -  °F | °C
As of 4:53 PM on Monday 22 Dec 2014 (Local Time) from KELM Reporting Station
Overcast Overcast  
Wind Chill: 36°   Ceiling: 3300
Heat Index: 36°   Visibility: 10mi
Dew Point: 26°   Wind: 3mph
Humidity: 67%   Direction: 250°WSW
Pressure: 30.15"   Gusts: NA
Location:  42.14°N, 77.05°W
Report Text: KELM 222153Z 25003KT 10SM OVC033 02/M03 A3015 RMK AO2 SLP219 T00221033
Loading
Personal Weather Stations






























Interactive Weather Map New forecast layout! Learn more

10-Day Weather Forecast

Advertisements
Track Severe Weather on mobile